createdAt,value
2022-11-16T00:00:06.087Z,738.4640
2022-11-16T00:00:19.641Z,728.7790
2022-11-16T00:00:30.782Z,729.5770
2022-11-16T00:00:42.001Z,731.9790
2022-11-16T00:00:53.192Z,740.1030
2022-11-16T00:01:04.380Z,734.3980
2022-11-16T00:01:15.589Z,739.2830
2022-11-16T00:01:26.787Z,732.7840
2022-11-16T00:01:38.066Z,731.9790
2022-11-16T00:01:49.212Z,730.3760
2022-11-16T00:02:00.458Z,733.5900
2022-11-16T00:02:11.673Z,733.5900
2022-11-16T00:02:22.993Z,732.7840
2022-11-16T00:02:34.129Z,734.3980
2022-11-16T00:02:45.220Z,724.8190
2022-11-16T00:02:56.321Z,731.9790
2022-11-16T00:03:07.410Z,731.9790
2022-11-16T00:03:18.508Z,726.3980
2022-11-16T00:03:29.683Z,729.5770
2022-11-16T00:03:40.890Z,736.0190
2022-11-16T00:03:52.077Z,734.3980
2022-11-16T00:04:03.171Z,731.1770
2022-11-16T00:04:14.441Z,729.5770
2022-11-16T00:04:25.670Z,735.2070
2022-11-16T00:04:36.891Z,731.1770
2022-11-16T00:04:48.021Z,731.1770
2022-11-16T00:04:59.111Z,734.3980
2022-11-16T00:05:10.207Z,732.7840
2022-11-16T00:05:27.054Z,728.7790
2022-11-16T00:05:38.330Z,721.6810
2022-11-16T00:05:49.520Z,723.2460
2022-11-16T00:06:00.626Z,721.6810
2022-11-16T00:06:11.695Z,724.8190
2022-11-16T00:06:22.790Z,724.0320
2022-11-16T00:06:34.012Z,724.8190
2022-11-16T00:06:45.201Z,726.3980
2022-11-16T00:06:56.460Z,724.0320
2022-11-16T00:07:07.644Z,724.0320
2022-11-16T00:07:18.784Z,726.3980
2022-11-16T00:07:30.071Z,736.0190
2022-11-16T00:07:41.231Z,720.9010
2022-11-16T00:07:52.397Z,724.0320
2022-11-16T00:08:03.616Z,727.9840
2022-11-16T00:08:14.818Z,729.5770
2022-11-16T00:08:26.024Z,729.5770
2022-11-16T00:08:37.191Z,726.3980
2022-11-16T00:08:48.422Z,731.9790
2022-11-16T00:08:59.597Z,734.3980
2022-11-16T00:09:10.667Z,729.5770
2022-11-16T00:09:21.792Z,734.3980
2022-11-16T00:09:32.930Z,740.1030
2022-11-16T00:09:44.081Z,733.5900
2022-11-16T00:09:55.282Z,736.0190
2022-11-16T00:10:06.480Z,735.2070
2022-11-16T00:10:17.667Z,743.4040
2022-11-16T00:10:28.911Z,731.9790
2022-11-16T00:10:40.070Z,734.3980
2022-11-16T00:10:51.281Z,736.0190
2022-11-16T00:11:02.467Z,736.8320
2022-11-16T00:11:13.561Z,737.6470
2022-11-16T00:11:24.670Z,737.6470
2022-11-16T00:11:35.746Z,737.6470
2022-11-16T00:11:46.984Z,744.2330
2022-11-16T00:11:58.148Z,739.2830
2022-11-16T00:12:09.372Z,738.4640
2022-11-16T00:12:20.601Z,739.2830
2022-11-16T00:12:31.797Z,740.9260
2022-11-16T00:12:42.957Z,739.2830
2022-11-16T00:12:54.030Z,742.5760
2022-11-16T00:13:05.105Z,740.1030
2022-11-16T00:13:16.151Z,748.3180
2022-11-16T00:13:27.277Z,747.4800
2022-11-16T00:13:38.371Z,742.5760
2022-11-16T00:13:49.522Z,743.4040
2022-11-16T00:14:00.731Z,743.4040
2022-11-16T00:14:11.921Z,743.4040
2022-11-16T00:14:23.212Z,740.9260
2022-11-16T00:14:34.360Z,744.2330
2022-11-16T00:14:45.532Z,747.0620
2022-11-16T00:14:56.731Z,745.8980
2022-11-16T00:15:07.902Z,747.4800
2022-11-16T00:15:18.961Z,742.5760
2022-11-16T00:15:30.050Z,747.0620
2022-11-16T00:15:41.217Z,751.2660
2022-11-16T00:15:52.425Z,750.8440
2022-11-16T00:16:03.600Z,751.6890
2022-11-16T00:16:14.680Z,750.4220
2022-11-16T00:16:25.741Z,751.6890
2022-11-16T00:16:36.826Z,748.3180
2022-11-16T00:16:48.090Z,750.0000
2022-11-16T00:16:59.272Z,755.9460
2022-11-16T00:17:10.513Z,755.5180
2022-11-16T00:17:21.691Z,752.9610
2022-11-16T00:17:32.939Z,752.5370
2022-11-16T00:17:44.103Z,755.0900
2022-11-16T00:17:55.289Z,755.0900
2022-11-16T00:18:06.502Z,752.9610
2022-11-16T00:18:17.687Z,754.2370
2022-11-16T00:18:28.779Z,760.2510
2022-11-16T00:18:39.907Z,763.2930
2022-11-16T00:18:51.007Z,757.6620
2022-11-16T00:19:02.168Z,755.0900
2022-11-16T00:19:13.391Z,760.6840
2022-11-16T00:19:24.704Z,761.1170
2022-11-16T00:19:35.763Z,761.1170
2022-11-16T00:19:47.000Z,766.3610
2022-11-16T00:19:58.161Z,762.8570
2022-11-16T00:20:09.350Z,759.8180
2022-11-16T00:20:20.463Z,761.1170
2022-11-16T00:20:31.569Z,760.6840
2022-11-16T00:20:42.651Z,761.1170
2022-11-16T00:20:53.828Z,759.8180
2022-11-16T00:21:05.083Z,761.1170
2022-11-16T00:21:16.227Z,761.1170
2022-11-16T00:21:27.458Z,762.8570
2022-11-16T00:21:38.633Z,762.8570
2022-11-16T00:21:49.831Z,761.9860
2022-11-16T00:22:01.040Z,764.1670
2022-11-16T00:22:12.221Z,758.0920
2022-11-16T00:22:23.368Z,765.4820
2022-11-16T00:22:34.440Z,764.6050
2022-11-16T00:22:45.505Z,764.6050
2022-11-16T00:22:56.701Z,765.9210
2022-11-16T00:23:07.807Z,760.6840
2022-11-16T00:23:18.860Z,760.2510
2022-11-16T00:23:30.017Z,763.7300
2022-11-16T00:23:41.054Z,767.2410
2022-11-16T00:23:52.127Z,768.1240
2022-11-16T00:24:03.264Z,766.3610
2022-11-16T00:24:14.469Z,769.0090
2022-11-16T00:24:25.712Z,768.5660
2022-11-16T00:24:36.865Z,766.3610
2022-11-16T00:24:47.910Z,765.4820
2022-11-16T00:24:58.951Z,769.8960
2022-11-16T00:25:10.146Z,767.2410
2022-11-16T00:25:21.340Z,773.9130
2022-11-16T00:25:33.561Z,769.8960
2022-11-16T00:25:44.629Z,773.4650
2022-11-16T00:25:55.691Z,773.9130
2022-11-16T00:26:06.780Z,769.4520
2022-11-16T00:26:18.004Z,771.2300
2022-11-16T00:26:29.200Z,772.1230
2022-11-16T00:26:40.390Z,765.9210
2022-11-16T00:26:51.437Z,772.1230
2022-11-16T00:27:02.507Z,774.3620
2022-11-16T00:27:13.669Z,775.2610
2022-11-16T00:27:24.870Z,772.5690
2022-11-16T00:27:36.060Z,777.0660
2022-11-16T00:27:47.276Z,777.9720
2022-11-16T00:27:58.470Z,777.5190
2022-11-16T00:28:09.660Z,781.6160
2022-11-16T00:28:20.876Z,777.9720
2022-11-16T00:28:32.331Z,769.8960
2022-11-16T00:28:43.642Z,774.8110
2022-11-16T00:28:54.784Z,778.4260
2022-11-16T00:29:05.992Z,773.4650
2022-11-16T00:29:17.200Z,779.7900
2022-11-16T00:29:28.439Z,780.7020
2022-11-16T00:29:39.600Z,779.7900
2022-11-16T00:29:50.668Z,782.0740
2022-11-16T00:30:01.757Z,782.5320
2022-11-16T00:30:12.910Z,782.0740
2022-11-16T00:30:24.079Z,789.9410
2022-11-16T00:30:35.171Z,786.6820
2022-11-16T00:30:46.261Z,777.0660
2022-11-16T00:30:57.322Z,779.7900
2022-11-16T00:31:08.541Z,786.2190
2022-11-16T00:31:19.628Z,786.6820
2022-11-16T00:31:30.701Z,784.8320
2022-11-16T00:31:41.860Z,786.6820
2022-11-16T00:31:53.020Z,781.6160
2022-11-16T00:32:04.122Z,789.4740
2022-11-16T00:32:15.221Z,786.6820
2022-11-16T00:32:26.360Z,782.0740
2022-11-16T00:32:37.518Z,788.0760
2022-11-16T00:32:48.739Z,788.0760
2022-11-16T00:32:59.911Z,788.5410
2022-11-16T00:33:11.111Z,786.2190
2022-11-16T00:33:22.195Z,783.4510
2022-11-16T00:33:33.289Z,789.9410
2022-11-16T00:33:44.381Z,789.9410
2022-11-16T00:33:55.600Z,789.0070
2022-11-16T00:34:06.700Z,788.0760
2022-11-16T00:34:17.986Z,791.8150
2022-11-16T00:34:29.240Z,791.8150
2022-11-16T00:34:40.392Z,793.6980
2022-11-16T00:34:51.580Z,790.4090
2022-11-16T00:35:02.810Z,789.0070
2022-11-16T00:35:13.991Z,791.8150
2022-11-16T00:35:25.030Z,792.7550
2022-11-16T00:35:36.123Z,796.0640
2022-11-16T00:35:47.281Z,789.4740
2022-11-16T00:35:58.462Z,796.5390
2022-11-16T00:36:09.543Z,795.5900
2022-11-16T00:36:20.600Z,795.5900
2022-11-16T00:36:31.747Z,791.8150
2022-11-16T00:36:42.971Z,796.5390
2022-11-16T00:36:54.182Z,795.5900
2022-11-16T00:37:05.349Z,796.5390
2022-11-16T00:37:16.450Z,789.4740
2022-11-16T00:37:27.524Z,799.4010
2022-11-16T00:37:38.620Z,800.3600
2022-11-16T00:37:49.841Z,797.9680
2022-11-16T00:38:01.030Z,797.0150
2022-11-16T00:38:12.230Z,794.1700
2022-11-16T00:38:23.427Z,798.4450
2022-11-16T00:38:35.132Z,799.4010
2022-11-16T00:38:46.478Z,797.9680
2022-11-16T00:38:57.680Z,801.8020
2022-11-16T00:39:08.764Z,797.9680
2022-11-16T00:39:19.855Z,798.9230
2022-11-16T00:39:30.977Z,802.2840
2022-11-16T00:39:42.155Z,799.4010
2022-11-16T00:39:53.342Z,806.1590
2022-11-16T00:40:04.552Z,802.7660
2022-11-16T00:40:15.592Z,801.8020
2022-11-16T00:40:26.661Z,800.3600
2022-11-16T00:40:37.820Z,805.6730
2022-11-16T00:40:48.912Z,810.0730
2022-11-16T00:41:00.015Z,806.1590
2022-11-16T00:41:11.108Z,803.2490
2022-11-16T00:41:22.173Z,806.1590
2022-11-16T00:41:33.227Z,808.1110
2022-11-16T00:41:44.389Z,810.0730
2022-11-16T00:41:55.602Z,806.1590
2022-11-16T00:42:06.823Z,808.6010
2022-11-16T00:42:18.010Z,812.5380
2022-11-16T00:42:29.203Z,810.0730
2022-11-16T00:42:40.404Z,810.5650
2022-11-16T00:42:51.662Z,813.0330
2022-11-16T00:43:02.790Z,808.6010
2022-11-16T00:43:13.991Z,811.0570
2022-11-16T00:43:25.211Z,813.0330
2022-11-16T00:43:36.311Z,814.0240
2022-11-16T00:43:47.382Z,811.0570
2022-11-16T00:43:58.480Z,812.0440
2022-11-16T00:44:09.697Z,812.5380
2022-11-16T00:44:20.883Z,809.0910
2022-11-16T00:44:31.981Z,815.0180
2022-11-16T00:44:43.061Z,816.0150
2022-11-16T00:44:54.140Z,812.0440
2022-11-16T00:45:05.339Z,821.0330
2022-11-16T00:45:16.563Z,811.0570
2022-11-16T00:45:27.743Z,815.0180
2022-11-16T00:45:38.787Z,812.5380
2022-11-16T00:45:49.862Z,817.5140
2022-11-16T00:46:01.061Z,817.5140
2022-11-16T00:46:12.230Z,818.5160
2022-11-16T00:46:23.431Z,815.5160
2022-11-16T00:46:34.660Z,818.0150
2022-11-16T00:46:45.741Z,818.0150
2022-11-16T00:46:56.861Z,817.5140
2022-11-16T00:47:07.997Z,819.5210
2022-11-16T00:47:19.107Z,817.0130
2022-11-16T00:47:30.370Z,820.5290
2022-11-16T00:47:41.571Z,820.0250
2022-11-16T00:47:57.704Z,821.5380
2022-11-16T00:48:09.700Z,810.0730
2022-11-16T00:48:20.861Z,812.0440
2022-11-16T00:48:32.478Z,814.0240
2022-11-16T00:48:43.737Z,815.0180
2022-11-16T00:48:54.799Z,814.0240
2022-11-16T00:49:05.981Z,816.5140
2022-11-16T00:49:17.198Z,812.0440
2022-11-16T00:49:28.397Z,818.5160
2022-11-16T00:49:39.477Z,816.0150
2022-11-16T00:49:50.551Z,820.0250
2022-11-16T00:50:01.678Z,820.0250
2022-11-16T00:50:12.861Z,819.5210
2022-11-16T00:50:24.078Z,820.5290
2022-11-16T00:50:35.288Z,818.5160
2022-11-16T00:50:46.461Z,824.0740
2022-11-16T00:50:57.669Z,817.0130
2022-11-16T00:51:08.871Z,823.0580
2022-11-16T00:51:20.069Z,820.5290
2022-11-16T00:51:31.281Z,822.0440
2022-11-16T00:51:42.350Z,829.7080
2022-11-16T00:51:53.443Z,816.5140
2022-11-16T00:52:04.601Z,824.5830
2022-11-16T00:52:15.750Z,820.5290
2022-11-16T00:52:26.947Z,818.0150
2022-11-16T00:52:38.169Z,821.5380
2022-11-16T00:52:49.250Z,828.1640
2022-11-16T00:53:00.338Z,825.6030
2022-11-16T00:53:11.430Z,828.1640
2022-11-16T00:53:22.643Z,826.1140
2022-11-16T00:53:33.840Z,825.0930
2022-11-16T00:53:45.053Z,827.6500
2022-11-16T00:53:56.227Z,829.1930
2022-11-16T00:54:07.498Z,821.0330
2022-11-16T00:54:18.650Z,827.1380
2022-11-16T00:54:29.836Z,828.6780
2022-11-16T00:54:41.069Z,830.2240
2022-11-16T00:54:52.139Z,830.2240
2022-11-16T00:55:03.201Z,831.2580
2022-11-16T00:55:14.301Z,833.8540
2022-11-16T00:55:25.507Z,830.7410
2022-11-16T00:55:36.582Z,827.6500
2022-11-16T00:55:47.720Z,831.7760
2022-11-16T00:55:58.790Z,824.5830
2022-11-16T00:56:09.988Z,830.7410
2022-11-16T00:56:21.253Z,832.2940
2022-11-16T00:56:32.389Z,832.2940
2022-11-16T00:56:43.507Z,831.7760
2022-11-16T00:56:54.619Z,833.3330
2022-11-16T00:57:05.691Z,833.3330
2022-11-16T00:57:16.861Z,830.7410
2022-11-16T00:57:28.101Z,833.3330
2022-11-16T00:57:39.312Z,833.8540
2022-11-16T00:57:50.470Z,833.3330
2022-11-16T00:58:01.590Z,834.3750
2022-11-16T00:58:12.882Z,835.4190
2022-11-16T00:58:24.111Z,832.2940
2022-11-16T00:58:35.521Z,834.3750
2022-11-16T00:58:46.793Z,833.3330
2022-11-16T00:58:57.853Z,838.0410
2022-11-16T00:59:08.937Z,834.8970
2022-11-16T00:59:20.060Z,838.0410
2022-11-16T00:59:31.278Z,832.2940
2022-11-16T00:59:42.343Z,836.4660
2022-11-16T00:59:53.411Z,839.0950
2022-11-16T01:00:04.462Z,836.9910
2022-11-16T01:00:15.540Z,839.6230
2022-11-16T01:00:26.643Z,839.6230
2022-11-16T01:00:37.820Z,838.0410
2022-11-16T01:00:49.277Z,833.8540
2022-11-16T01:01:00.664Z,830.7410
2022-11-16T01:01:11.796Z,836.9910
2022-11-16T01:01:23.026Z,838.5680
2022-11-16T01:01:34.299Z,838.5680
2022-11-16T01:01:45.499Z,841.7400
2022-11-16T01:01:56.602Z,839.6230
2022-11-16T01:02:07.747Z,832.2940
2022-11-16T01:02:18.971Z,837.5160
2022-11-16T01:02:30.181Z,840.1510
2022-11-16T01:02:41.346Z,839.6230
2022-11-16T01:02:52.611Z,842.8030
2022-11-16T01:03:03.771Z,842.8030
2022-11-16T01:03:14.977Z,839.6230
2022-11-16T01:03:26.192Z,841.2100
2022-11-16T01:03:37.359Z,839.6230
2022-11-16T01:03:48.573Z,843.8690
2022-11-16T01:03:59.781Z,840.1510
2022-11-16T01:04:10.840Z,841.2100
2022-11-16T01:04:21.967Z,842.8030
2022-11-16T01:04:33.060Z,846.0080
2022-11-16T01:04:44.282Z,843.8690
2022-11-16T01:04:55.493Z,844.9370
2022-11-16T01:05:06.646Z,847.0810
2022-11-16T01:05:17.833Z,847.0810
2022-11-16T01:05:29.021Z,852.4900
2022-11-16T01:05:40.230Z,844.9370
2022-11-16T01:05:51.431Z,844.4020
2022-11-16T01:06:02.628Z,839.6230
2022-11-16T01:06:13.670Z,843.8690
2022-11-16T01:06:24.723Z,848.1580
2022-11-16T01:06:35.908Z,843.3350
2022-11-16T01:06:47.179Z,846.0080
2022-11-16T01:06:58.411Z,848.1580
2022-11-16T01:07:09.592Z,846.0080
2022-11-16T01:07:20.698Z,848.6970
2022-11-16T01:07:31.992Z,851.4030
2022-11-16T01:07:43.122Z,844.9370
2022-11-16T01:07:54.352Z,850.8600
2022-11-16T01:08:05.510Z,853.0350
2022-11-16T01:08:16.727Z,853.0350
2022-11-16T01:08:27.910Z,849.2370
2022-11-16T01:08:38.971Z,851.4030
2022-11-16T01:08:50.074Z,851.4030
2022-11-16T01:09:01.184Z,861.2900
2022-11-16T01:09:12.402Z,850.8600
2022-11-16T01:09:23.460Z,851.4030
2022-11-16T01:09:34.537Z,856.8680
2022-11-16T01:09:45.659Z,853.5810
2022-11-16T01:09:56.880Z,848.6970
2022-11-16T01:10:08.075Z,850.3180
2022-11-16T01:10:19.267Z,852.4900
2022-11-16T01:10:30.346Z,857.9690
2022-11-16T01:10:41.426Z,854.1270
2022-11-16T01:10:52.562Z,850.3180
2022-11-16T01:11:03.762Z,851.9460
2022-11-16T01:11:14.941Z,852.4900
2022-11-16T01:11:26.150Z,854.6730
2022-11-16T01:11:37.347Z,848.1580
2022-11-16T01:11:48.567Z,850.8600
2022-11-16T01:11:59.751Z,850.8600
2022-11-16T01:12:10.965Z,854.1270
2022-11-16T01:12:22.160Z,851.9460
2022-11-16T01:12:33.237Z,854.6730
2022-11-16T01:12:44.324Z,857.9690
2022-11-16T01:12:55.441Z,856.8680
2022-11-16T01:13:06.640Z,859.6270
2022-11-16T01:13:17.820Z,857.4180
2022-11-16T01:13:29.029Z,859.6270
2022-11-16T01:13:40.101Z,857.4180
2022-11-16T01:13:51.260Z,859.0730
2022-11-16T01:14:02.353Z,860.1800
2022-11-16T01:14:13.531Z,855.2210
2022-11-16T01:14:24.730Z,857.9690
2022-11-16T01:14:35.916Z,853.5810
2022-11-16T01:14:47.019Z,857.4180
2022-11-16T01:14:58.120Z,860.1800
2022-11-16T01:15:09.201Z,856.8680
2022-11-16T01:15:20.392Z,852.4900
2022-11-16T01:15:31.605Z,859.0730
2022-11-16T01:15:42.680Z,859.0730
2022-11-16T01:15:53.760Z,853.5810
2022-11-16T01:16:04.902Z,860.1800
2022-11-16T01:16:16.068Z,862.9610
2022-11-16T01:16:27.277Z,857.9690
2022-11-16T01:16:38.469Z,862.4030
2022-11-16T01:16:49.690Z,860.1800
2022-11-16T01:17:00.784Z,862.4030
2022-11-16T01:17:11.860Z,862.9610
2022-11-16T01:17:22.960Z,859.6270
2022-11-16T01:17:34.160Z,862.4030
2022-11-16T01:17:45.371Z,861.2900
2022-11-16T01:17:56.570Z,859.0730
2022-11-16T01:18:07.764Z,865.1980
2022-11-16T01:18:18.946Z,863.5190
2022-11-16T01:18:30.240Z,862.4030
2022-11-16T01:18:41.386Z,861.2900
2022-11-16T01:18:52.435Z,864.0780
2022-11-16T01:19:03.531Z,863.5190
2022-11-16T01:19:14.630Z,865.7590
2022-11-16T01:19:25.829Z,859.0730
2022-11-16T01:19:37.027Z,868.0100
2022-11-16T01:19:48.430Z,866.3210
2022-11-16T01:19:59.500Z,860.1800
2022-11-16T01:20:10.651Z,865.7590
2022-11-16T01:20:21.848Z,868.0100
2022-11-16T01:20:33.063Z,864.6370
2022-11-16T01:20:44.259Z,867.4460
2022-11-16T01:20:55.423Z,867.4460
2022-11-16T01:21:06.646Z,868.5750
2022-11-16T01:21:17.840Z,864.6370
2022-11-16T01:21:29.061Z,866.3210
2022-11-16T01:21:40.141Z,866.3210
2022-11-16T01:21:51.257Z,867.4460
2022-11-16T01:22:02.328Z,869.1410
2022-11-16T01:22:13.529Z,875.4100
2022-11-16T01:22:24.712Z,871.4100
2022-11-16T01:22:35.909Z,865.7590
2022-11-16T01:22:47.111Z,868.0100
2022-11-16T01:22:58.308Z,866.3210
2022-11-16T01:23:09.562Z,868.0100
2022-11-16T01:23:20.720Z,870.2740
2022-11-16T01:23:31.921Z,868.0100
2022-11-16T01:23:43.131Z,872.5490
2022-11-16T01:23:54.336Z,863.5190
2022-11-16T01:24:05.452Z,868.0100
2022-11-16T01:24:16.752Z,871.4100
2022-11-16T01:24:27.910Z,872.5490
2022-11-16T01:24:39.127Z,870.8410
2022-11-16T01:24:50.458Z,870.2740
2022-11-16T01:25:01.582Z,864.6370
2022-11-16T01:25:12.760Z,868.0100
2022-11-16T01:25:23.914Z,868.0100
2022-11-16T01:25:35.130Z,870.2740
2022-11-16T01:25:46.211Z,872.5490
2022-11-16T01:25:57.525Z,866.8830
2022-11-16T01:26:08.713Z,873.6910
2022-11-16T01:26:19.900Z,873.6910
2022-11-16T01:26:31.108Z,873.6910
2022-11-16T01:26:42.352Z,871.9790
2022-11-16T01:26:53.541Z,872.5490
2022-11-16T01:27:04.642Z,872.5490
2022-11-16T01:27:15.922Z,875.4100
2022-11-16T01:27:27.133Z,872.5490
2022-11-16T01:27:38.340Z,879.4470
2022-11-16T01:27:49.546Z,869.1410
2022-11-16T01:28:00.729Z,873.1200
2022-11-16T01:28:11.951Z,869.1410
2022-11-16T01:28:23.115Z,867.4460
2022-11-16T01:28:34.680Z,871.9790
2022-11-16T01:28:45.892Z,865.1980
2022-11-16T01:28:57.023Z,873.1200
2022-11-16T01:29:08.270Z,868.0100
2022-11-16T01:29:19.431Z,868.0100
2022-11-16T01:29:30.630Z,875.4100
2022-11-16T01:29:41.840Z,876.5590
2022-11-16T01:29:53.091Z,873.1200
2022-11-16T01:30:04.180Z,874.8360
2022-11-16T01:30:15.451Z,874.8360
2022-11-16T01:30:26.652Z,875.9840
2022-11-16T01:30:37.689Z,878.2890
2022-11-16T01:30:48.730Z,870.8410
2022-11-16T01:30:59.910Z,875.9840
2022-11-16T01:31:11.002Z,878.2890
2022-11-16T01:31:22.089Z,872.5490
2022-11-16T01:31:33.203Z,876.5590
2022-11-16T01:31:44.411Z,874.2630
2022-11-16T01:31:55.598Z,878.2890
2022-11-16T01:32:06.813Z,876.5590
2022-11-16T01:32:18.025Z,877.1350
2022-11-16T01:32:29.190Z,878.2890
2022-11-16T01:32:40.390Z,875.4100
2022-11-16T01:32:51.610Z,877.1350
2022-11-16T01:33:02.714Z,875.9840
2022-11-16T01:33:13.769Z,875.9840
2022-11-16T01:33:24.862Z,871.4100
2022-11-16T01:33:36.067Z,881.7700
2022-11-16T01:33:47.281Z,879.4470
2022-11-16T01:33:58.489Z,870.2740
2022-11-16T01:34:09.690Z,880.0260
2022-11-16T01:34:20.895Z,878.8680
2022-11-16T01:34:32.097Z,886.4540
2022-11-16T01:34:43.277Z,875.9840
2022-11-16T01:34:54.589Z,876.5590
2022-11-16T01:35:05.700Z,879.4470
2022-11-16T01:35:16.796Z,875.9840
2022-11-16T01:35:27.876Z,877.7120
2022-11-16T01:35:38.980Z,880.0260
2022-11-16T01:35:50.098Z,872.5490
2022-11-16T01:36:01.391Z,877.1350
2022-11-16T01:36:12.574Z,878.2890
2022-11-16T01:36:23.650Z,878.2890
2022-11-16T01:36:34.747Z,881.7700
2022-11-16T01:36:45.861Z,880.0260
2022-11-16T01:36:57.068Z,878.2890
2022-11-16T01:37:08.264Z,875.9840
2022-11-16T01:37:19.440Z,878.8680
2022-11-16T01:37:30.630Z,880.0260
2022-11-16T01:37:41.841Z,874.8360
2022-11-16T01:37:53.027Z,874.8360
2022-11-16T01:38:04.253Z,879.4470
2022-11-16T01:38:15.429Z,879.4470
2022-11-16T01:38:29.762Z,880.0260
2022-11-16T01:38:41.394Z,873.6910
2022-11-16T01:38:52.465Z,876.5590
2022-11-16T01:39:03.526Z,875.9840
2022-11-16T01:39:14.670Z,877.1350
2022-11-16T01:39:25.858Z,877.7120
2022-11-16T01:39:37.052Z,880.0260
2022-11-16T01:39:48.257Z,880.0260
2022-11-16T01:39:59.460Z,877.7120
2022-11-16T01:40:10.638Z,878.2890
2022-11-16T01:40:21.848Z,879.4470
2022-11-16T01:40:33.072Z,878.8680
2022-11-16T01:40:44.230Z,880.0260
2022-11-16T01:40:55.319Z,878.2890
2022-11-16T01:41:06.411Z,879.4470
2022-11-16T01:41:17.539Z,875.9840
2022-11-16T01:41:28.741Z,880.6070
2022-11-16T01:41:39.917Z,882.9370
2022-11-16T01:41:51.017Z,882.9370
2022-11-16T01:42:02.100Z,886.4540
2022-11-16T01:42:13.220Z,886.4540
2022-11-16T01:42:24.438Z,881.7700
2022-11-16T01:42:35.606Z,885.2790
2022-11-16T01:42:46.822Z,882.9370
2022-11-16T01:42:57.987Z,884.1060
2022-11-16T01:43:09.100Z,881.7700
2022-11-16T01:43:20.221Z,881.7700
2022-11-16T01:43:31.335Z,884.6920
2022-11-16T01:43:42.507Z,884.6920
2022-11-16T01:43:53.683Z,877.7120
2022-11-16T01:44:04.871Z,884.1060
2022-11-16T01:44:16.091Z,886.4540
2022-11-16T01:44:27.271Z,878.8680
2022-11-16T01:44:38.460Z,881.1880
2022-11-16T01:44:49.510Z,892.3800
2022-11-16T01:45:00.636Z,881.1880
2022-11-16T01:45:11.677Z,882.9370
2022-11-16T01:45:22.738Z,886.4540
2022-11-16T01:45:33.831Z,892.3800
2022-11-16T01:45:45.058Z,887.6330
2022-11-16T01:45:56.238Z,881.7700
2022-11-16T01:46:07.453Z,885.2790
2022-11-16T01:46:18.660Z,887.0430
2022-11-16T01:46:29.832Z,887.0430
2022-11-16T01:46:41.040Z,887.6330
2022-11-16T01:46:52.258Z,888.2240
2022-11-16T01:47:03.436Z,888.2240
2022-11-16T01:47:14.481Z,884.6920
2022-11-16T01:47:25.601Z,887.6330
2022-11-16T01:47:36.710Z,885.2790
2022-11-16T01:47:47.908Z,888.8150
2022-11-16T01:47:59.271Z,888.8150
2022-11-16T01:48:10.428Z,888.8150
2022-11-16T01:48:21.537Z,890.0000
2022-11-16T01:48:33.145Z,886.4540
2022-11-16T01:48:44.623Z,885.2790
2022-11-16T01:48:55.750Z,890.0000
2022-11-16T01:49:06.801Z,887.0430
2022-11-16T01:49:17.880Z,887.0430
2022-11-16T01:49:29.041Z,887.0430
2022-11-16T01:49:40.248Z,885.8660
2022-11-16T01:49:51.433Z,886.4540
2022-11-16T01:50:02.710Z,885.2790
2022-11-16T01:50:13.838Z,887.6330
2022-11-16T01:50:25.053Z,887.6330
2022-11-16T01:50:36.241Z,886.4540
2022-11-16T01:50:47.437Z,888.8150
2022-11-16T01:50:58.641Z,886.4540
2022-11-16T01:51:09.831Z,886.4540
2022-11-16T01:51:20.917Z,889.4070
2022-11-16T01:51:32.024Z,884.6920
2022-11-16T01:51:43.101Z,887.6330
2022-11-16T01:51:54.311Z,892.3800
2022-11-16T01:52:05.510Z,888.2240
2022-11-16T01:52:16.701Z,890.5940
2022-11-16T01:52:27.752Z,887.0430
2022-11-16T01:52:38.897Z,885.2790
2022-11-16T01:52:50.249Z,889.4070
2022-11-16T01:53:01.321Z,888.8150
2022-11-16T01:53:12.380Z,891.1880
2022-11-16T01:53:23.600Z,887.6330
2022-11-16T01:53:34.700Z,882.3530
2022-11-16T01:53:45.760Z,888.8150
2022-11-16T01:53:56.882Z,890.0000
2022-11-16T01:54:07.973Z,888.8150
2022-11-16T01:54:19.050Z,883.5210
2022-11-16T01:54:30.210Z,890.0000
2022-11-16T01:54:41.267Z,890.5940
2022-11-16T01:54:52.323Z,891.1880
2022-11-16T01:55:03.463Z,882.9370
2022-11-16T01:55:14.649Z,888.2240
2022-11-16T01:55:25.821Z,889.4070
2022-11-16T01:55:36.928Z,888.8150
2022-11-16T01:55:47.970Z,888.8150
2022-11-16T01:55:59.102Z,887.6330
2022-11-16T01:56:10.328Z,891.1880
2022-11-16T01:56:21.521Z,888.8150
2022-11-16T01:56:32.720Z,887.0430
2022-11-16T01:56:43.842Z,884.1060
2022-11-16T01:56:54.911Z,893.5740
2022-11-16T01:57:05.980Z,895.9730
2022-11-16T01:57:17.190Z,891.1880
2022-11-16T01:57:28.241Z,888.8150
2022-11-16T01:57:39.288Z,890.5940
2022-11-16T01:57:50.511Z,894.7720
2022-11-16T01:58:01.598Z,885.2790
2022-11-16T01:58:12.663Z,891.7840
2022-11-16T01:58:23.741Z,890.0000
2022-11-16T01:58:35.264Z,886.4540
2022-11-16T01:58:46.521Z,891.1880
2022-11-16T01:58:57.669Z,892.3800
2022-11-16T01:59:08.891Z,891.7840
2022-11-16T01:59:20.080Z,890.0000
2022-11-16T01:59:31.140Z,894.1730
2022-11-16T01:59:42.222Z,894.7720
2022-11-16T01:59:53.341Z,890.0000
2022-11-16T02:00:04.439Z,891.1880
2022-11-16T02:00:15.510Z,891.1880
2022-11-16T02:00:26.632Z,891.7840
2022-11-16T02:00:37.862Z,895.3720
2022-11-16T02:00:49.194Z,890.0000
2022-11-16T02:01:00.392Z,890.0000
2022-11-16T02:01:11.531Z,894.1730
2022-11-16T02:01:22.830Z,888.8150
2022-11-16T02:01:33.968Z,890.0000
2022-11-16T02:01:45.020Z,890.0000
2022-11-16T02:01:56.231Z,890.5940
2022-11-16T02:02:07.274Z,888.8150
2022-11-16T02:02:18.321Z,885.2790
2022-11-16T02:02:29.501Z,893.5740
2022-11-16T02:02:40.701Z,889.4070
2022-11-16T02:02:51.912Z,891.1880
2022-11-16T02:03:03.101Z,884.6920
2022-11-16T02:03:14.140Z,891.1880
2022-11-16T02:03:25.181Z,888.2240
2022-11-16T02:03:36.387Z,889.4070
2022-11-16T02:03:47.580Z,890.0000
2022-11-16T02:03:58.789Z,888.8150
2022-11-16T02:04:09.990Z,893.5740
2022-11-16T02:04:21.080Z,893.5740
2022-11-16T02:04:32.161Z,887.6330
2022-11-16T02:04:43.291Z,892.3800
2022-11-16T02:04:54.471Z,890.5940
2022-11-16T02:05:05.732Z,888.8150
2022-11-16T02:05:16.881Z,894.7720
2022-11-16T02:05:28.082Z,895.9730
2022-11-16T02:05:39.272Z,885.2790
2022-11-16T02:05:50.470Z,894.7720
2022-11-16T02:06:01.668Z,891.1880
2022-11-16T02:06:12.861Z,890.5940
2022-11-16T02:06:23.902Z,888.8150
2022-11-16T02:06:34.953Z,891.1880
2022-11-16T02:06:46.140Z,895.3720
2022-11-16T02:06:57.444Z,891.1880
2022-11-16T02:07:08.598Z,891.1880
2022-11-16T02:07:19.838Z,896.5750
2022-11-16T02:07:31.103Z,892.3800
2022-11-16T02:07:42.181Z,892.3800
2022-11-16T02:07:53.361Z,893.5740
2022-11-16T02:08:04.542Z,892.3800
2022-11-16T02:08:15.740Z,887.0430
2022-11-16T02:08:26.790Z,893.5740
2022-11-16T02:08:37.836Z,898.9900
2022-11-16T02:08:49.021Z,892.9770
2022-11-16T02:09:00.220Z,891.7840
2022-11-16T02:09:11.453Z,895.9730
2022-11-16T02:09:22.621Z,895.9730
2022-11-16T02:09:33.831Z,897.7810
2022-11-16T02:09:45.030Z,897.1770
2022-11-16T02:09:56.092Z,896.5750
2022-11-16T02:10:07.189Z,897.7810
2022-11-16T02:10:18.351Z,894.1730
2022-11-16T02:10:29.470Z,894.1730
2022-11-16T02:10:40.699Z,896.5750
2022-11-16T02:10:51.945Z,895.9730
2022-11-16T02:11:03.102Z,895.9730
2022-11-16T02:11:14.309Z,897.1770
2022-11-16T02:11:25.530Z,888.8150